sensor_id;sensor_type;location;lat;lon;timestamp;P1;durP1;ratioP1;P2;durP2;ratioP2
1378;SDS011;683;48.738;9.226;2022-12-26T00:00:10;6.53;;;4.23;;
1378;SDS011;683;48.738;9.226;2022-12-26T00:02:39;4.37;;;3.97;;
1378;SDS011;683;48.738;9.226;2022-12-26T00:05:10;8.40;;;4.00;;
1378;SDS011;683;48.738;9.226;2022-12-26T00:07:38;5.03;;;4.33;;
1378;SDS011;683;48.738;9.226;2022-12-26T00:10:06;5.03;;;4.53;;
1378;SDS011;683;48.738;9.226;2022-12-26T00:12:34;4.50;;;4.10;;
1378;SDS011;683;48.738;9.226;2022-12-26T00:15:01;5.00;;;3.90;;
1378;SDS011;683;48.738;9.226;2022-12-26T00:17:29;4.23;;;3.80;;
1378;SDS011;683;48.738;9.226;2022-12-26T00:19:56;4.33;;;4.00;;
1378;SDS011;683;48.738;9.226;2022-12-26T00:22:23;4.63;;;4.10;;
1378;SDS011;683;48.738;9.226;2022-12-26T00:24:52;3.70;;;3.40;;
1378;SDS011;683;48.738;9.226;2022-12-26T00:27:19;4.30;;;4.00;;
1378;SDS011;683;48.738;9.226;2022-12-26T00:29:46;6.10;;;3.90;;
1378;SDS011;683;48.738;9.226;2022-12-26T00:32:14;3.67;;;3.37;;
1378;SDS011;683;48.738;9.226;2022-12-26T00:34:41;5.03;;;4.47;;
1378;SDS011;683;48.738;9.226;2022-12-26T00:37:08;4.73;;;4.33;;
1378;SDS011;683;48.738;9.226;2022-12-26T00:39:35;4.20;;;3.83;;
1378;SDS011;683;48.738;9.226;2022-12-26T00:42:04;6.03;;;4.17;;
1378;SDS011;683;48.738;9.226;2022-12-26T00:44:31;7.33;;;3.80;;
1378;SDS011;683;48.738;9.226;2022-12-26T00:46:58;3.80;;;3.50;;
1378;SDS011;683;48.738;9.226;2022-12-26T00:49:26;5.03;;;3.70;;
1378;SDS011;683;48.738;9.226;2022-12-26T00:51:53;4.13;;;3.83;;
1378;SDS011;683;48.738;9.226;2022-12-26T00:54:20;4.70;;;4.20;;
1378;SDS011;683;48.738;9.226;2022-12-26T00:56:47;4.33;;;3.63;;
1378;SDS011;683;48.738;9.226;2022-12-26T00:59:16;4.03;;;3.70;;
1378;SDS011;683;48.738;9.226;2022-12-26T01:01:43;4.20;;;3.80;;
1378;SDS011;683;48.738;9.226;2022-12-26T01:04:11;5.70;;;4.33;;
1378;SDS011;683;48.738;9.226;2022-12-26T01:06:38;4.80;;;4.40;;
1378;SDS011;683;48.738;9.226;2022-12-26T01:09:06;4.93;;;4.43;;
1378;SDS011;683;48.738;9.226;2022-12-26T01:11:36;4.40;;;4.00;;
1378;SDS011;683;48.738;9.226;2022-12-26T01:14:08;4.53;;;3.80;;
1378;SDS011;683;48.738;9.226;2022-12-26T01:16:42;3.97;;;3.67;;
1378;SDS011;683;48.738;9.226;2022-12-26T01:19:11;4.03;;;3.73;;
1378;SDS011;683;48.738;9.226;2022-12-26T01:21:41;5.47;;;4.00;;
1378;SDS011;683;48.738;9.226;2022-12-26T01:24:09;3.40;;;3.10;;
1378;SDS011;683;48.738;9.226;2022-12-26T01:26:37;4.77;;;4.37;;
1378;SDS011;683;48.738;9.226;2022-12-26T01:29:04;3.90;;;3.60;;
1378;SDS011;683;48.738;9.226;2022-12-26T01:31:34;5.43;;;3.50;;
1378;SDS011;683;48.738;9.226;2022-12-26T01:34:02;3.73;;;3.30;;
1378;SDS011;683;48.738;9.226;2022-12-26T01:36:30;5.60;;;3.70;;
1378;SDS011;683;48.738;9.226;2022-12-26T01:38:57;4.23;;;3.50;;
1378;SDS011;683;48.738;9.226;2022-12-26T01:41:24;3.80;;;3.50;;
1378;SDS011;683;48.738;9.226;2022-12-26T01:43:53;3.40;;;3.10;;
1378;SDS011;683;48.738;9.226;2022-12-26T01:46:24;4.73;;;3.57;;
1378;SDS011;683;48.738;9.226;2022-12-26T01:48:54;3.83;;;3.50;;
1378;SDS011;683;48.738;9.226;2022-12-26T01:51:27;5.87;;;3.97;;
1378;SDS011;683;48.738;9.226;2022-12-26T01:53:59;5.30;;;4.10;;
1378;SDS011;683;48.738;9.226;2022-12-26T01:56:29;4.20;;;3.77;;
1378;SDS011;683;48.738;9.226;2022-12-26T01:59:01;3.63;;;3.33;;
1378;SDS011;683;48.738;9.226;2022-12-26T02:01:32;3.87;;;3.47;;
1378;SDS011;683;48.738;9.226;2022-12-26T02:04:02;4.40;;;3.27;;
1378;SDS011;683;48.738;9.226;2022-12-26T02:06:51;5.60;;;3.63;;
1378;SDS011;683;48.738;9.226;2022-12-26T02:09:19;3.90;;;3.60;;
1378;SDS011;683;48.738;9.226;2022-12-26T02:11:47;5.20;;;4.00;;
1378;SDS011;683;48.738;9.226;2022-12-26T02:14:18;3.70;;;3.30;;
1378;SDS011;683;48.738;9.226;2022-12-26T02:16:45;3.73;;;3.33;;
1378;SDS011;683;48.738;9.226;2022-12-26T02:19:17;3.20;;;2.90;;
1378;SDS011;683;48.738;9.226;2022-12-26T02:22:01;3.20;;;2.97;;
1378;SDS011;683;48.738;9.226;2022-12-26T02:24:49;3.13;;;2.83;;
1378;SDS011;683;48.738;9.226;2022-12-26T02:27:36;3.80;;;3.00;;
1378;SDS011;683;48.738;9.226;2022-12-26T02:30:36;3.23;;;3.00;;
1378;SDS011;683;48.738;9.226;2022-12-26T02:33:13;3.57;;;3.27;;
1378;SDS011;683;48.738;9.226;2022-12-26T02:36:03;4.70;;;3.40;;
1378;SDS011;683;48.738;9.226;2022-12-26T02:38:50;3.63;;;3.30;;
1378;SDS011;683;48.738;9.226;2022-12-26T02:41:30;3.40;;;3.13;;
1378;SDS011;683;48.738;9.226;2022-12-26T02:44:07;3.50;;;3.20;;
1378;SDS011;683;48.738;9.226;2022-12-26T02:47:01;4.47;;;3.63;;
1378;SDS011;683;48.738;9.226;2022-12-26T02:49:40;3.83;;;3.53;;
1378;SDS011;683;48.738;9.226;2022-12-26T02:52:39;3.30;;;3.00;;
1378;SDS011;683;48.738;9.226;2022-12-26T02:55:33;3.60;;;3.07;;
1378;SDS011;683;48.738;9.226;2022-12-26T02:58:25;3.23;;;2.93;;
1378;SDS011;683;48.738;9.226;2022-12-26T03:01:23;3.33;;;3.03;;
1378;SDS011;683;48.738;9.226;2022-12-26T03:04:15;4.30;;;3.20;;
1378;SDS011;683;48.738;9.226;2022-12-26T03:07:03;3.20;;;2.90;;
1378;SDS011;683;48.738;9.226;2022-12-26T03:09:54;3.47;;;2.80;;
1378;SDS011;683;48.738;9.226;2022-12-26T03:12:42;3.13;;;2.83;;
1378;SDS011;683;48.738;9.226;2022-12-26T03:15:31;4.37;;;3.53;;
1378;SDS011;683;48.738;9.226;2022-12-26T03:18:17;4.10;;;2.80;;
1378;SDS011;683;48.738;9.226;2022-12-26T03:20:47;3.27;;;3.00;;
1378;SDS011;683;48.738;9.226;2022-12-26T03:23:15;4.83;;;3.40;;
1378;SDS011;683;48.738;9.226;2022-12-26T03:25:44;2.93;;;2.63;;
1378;SDS011;683;48.738;9.226;2022-12-26T03:28:33;3.23;;;3.03;;
1378;SDS011;683;48.738;9.226;2022-12-26T03:31:01;4.13;;;3.73;;
1378;SDS011;683;48.738;9.226;2022-12-26T03:33:32;3.30;;;3.00;;
1378;SDS011;683;48.738;9.226;2022-12-26T03:36:22;3.83;;;3.30;;
1378;SDS011;683;48.738;9.226;2022-12-26T03:38:59;3.47;;;3.17;;
1378;SDS011;683;48.738;9.226;2022-12-26T03:41:39;3.47;;;3.13;;
1378;SDS011;683;48.738;9.226;2022-12-26T03:44:36;3.47;;;3.17;;
1378;SDS011;683;48.738;9.226;2022-12-26T03:47:26;3.43;;;3.10;;
1378;SDS011;683;48.738;9.226;2022-12-26T03:50:20;3.33;;;3.03;;
1378;SDS011;683;48.738;9.226;2022-12-26T03:53:16;3.83;;;3.53;;
1378;SDS011;683;48.738;9.226;2022-12-26T03:56:05;3.50;;;2.90;;
1378;SDS011;683;48.738;9.226;2022-12-26T03:58:58;4.60;;;3.60;;
1378;SDS011;683;48.738;9.226;2022-12-26T04:01:48;4.50;;;3.40;;
1378;SDS011;683;48.738;9.226;2022-12-26T04:04:35;4.33;;;3.03;;
1378;SDS011;683;48.738;9.226;2022-12-26T04:07:24;2.83;;;2.63;;
1378;SDS011;683;48.738;9.226;2022-12-26T04:10:16;3.60;;;2.50;;
1378;SDS011;683;48.738;9.226;2022-12-26T04:13:04;3.50;;;3.20;;
1378;SDS011;683;48.738;9.226;2022-12-26T04:15:59;2.60;;;2.40;;
1378;SDS011;683;48.738;9.226;2022-12-26T04:18:57;3.33;;;3.00;;
1378;SDS011;683;48.738;9.226;2022-12-26T04:21:47;4.00;;;3.50;;
1378;SDS011;683;48.738;9.226;2022-12-26T04:24:38;3.07;;;2.87;;
1378;SDS011;683;48.738;9.226;2022-12-26T04:27:29;2.77;;;2.43;;
1378;SDS011;683;48.738;9.226;2022-12-26T04:30:15;2.97;;;2.67;;
1378;SDS011;683;48.738;9.226;2022-12-26T04:33:02;3.10;;;2.80;;
1378;SDS011;683;48.738;9.226;2022-12-26T04:35:54;3.13;;;2.80;;
1378;SDS011;683;48.738;9.226;2022-12-26T04:38:45;4.60;;;3.23;;
1378;SDS011;683;48.738;9.226;2022-12-26T04:41:33;4.27;;;3.20;;
1378;SDS011;683;48.738;9.226;2022-12-26T04:44:21;2.93;;;2.70;;
1378;SDS011;683;48.738;9.226;2022-12-26T04:46:50;2.73;;;2.10;;
1378;SDS011;683;48.738;9.226;2022-12-26T04:49:19;2.90;;;2.70;;
1378;SDS011;683;48.738;9.226;2022-12-26T04:52:04;3.00;;;2.70;;
1378;SDS011;683;48.738;9.226;2022-12-26T04:54:33;3.10;;;2.90;;
1378;SDS011;683;48.738;9.226;2022-12-26T04:57:00;4.30;;;3.30;;
1378;SDS011;683;48.738;9.226;2022-12-26T04:59:29;2.57;;;2.37;;
1378;SDS011;683;48.738;9.226;2022-12-26T05:01:57;4.00;;;2.70;;
1378;SDS011;683;48.738;9.226;2022-12-26T05:04:42;3.77;;;2.83;;
1378;SDS011;683;48.738;9.226;2022-12-26T05:07:27;3.70;;;3.07;;
1378;SDS011;683;48.738;9.226;2022-12-26T05:10:16;3.10;;;2.80;;
1378;SDS011;683;48.738;9.226;2022-12-26T05:12:45;3.80;;;2.97;;
1378;SDS011;683;48.738;9.226;2022-12-26T05:15:15;4.53;;;3.33;;
1378;SDS011;683;48.738;9.226;2022-12-26T05:17:42;5.50;;;2.57;;
1378;SDS011;683;48.738;9.226;2022-12-26T05:20:29;3.30;;;2.73;;
1378;SDS011;683;48.738;9.226;2022-12-26T05:23:13;5.53;;;2.87;;
1378;SDS011;683;48.738;9.226;2022-12-26T05:26:01;2.80;;;2.60;;
1378;SDS011;683;48.738;9.226;2022-12-26T05:28:48;2.93;;;2.60;;
1378;SDS011;683;48.738;9.226;2022-12-26T05:31:22;2.97;;;2.77;;
1378;SDS011;683;48.738;9.226;2022-12-26T05:33:49;3.50;;;3.20;;
1378;SDS011;683;48.738;9.226;2022-12-26T05:36:32;4.00;;;3.20;;
1378;SDS011;683;48.738;9.226;2022-12-26T05:39:02;2.50;;;2.30;;
1378;SDS011;683;48.738;9.226;2022-12-26T05:41:29;3.27;;;2.73;;
1378;SDS011;683;48.738;9.226;2022-12-26T05:43:57;2.60;;;2.40;;
1378;SDS011;683;48.738;9.226;2022-12-26T05:46:25;2.97;;;2.77;;
1378;SDS011;683;48.738;9.226;2022-12-26T05:48:53;5.07;;;3.20;;
1378;SDS011;683;48.738;9.226;2022-12-26T05:51:20;3.70;;;3.40;;
1378;SDS011;683;48.738;9.226;2022-12-26T05:53:47;2.83;;;2.63;;
1378;SDS011;683;48.738;9.226;2022-12-26T05:56:16;3.10;;;2.60;;
1378;SDS011;683;48.738;9.226;2022-12-26T05:58:44;3.10;;;2.80;;
1378;SDS011;683;48.738;9.226;2022-12-26T06:01:12;3.27;;;2.87;;
1378;SDS011;683;48.738;9.226;2022-12-26T06:03:42;2.60;;;2.40;;
1378;SDS011;683;48.738;9.226;2022-12-26T06:06:12;4.70;;;3.20;;
1378;SDS011;683;48.738;9.226;2022-12-26T06:08:41;11.53;;;3.47;;
1378;SDS011;683;48.738;9.226;2022-12-26T06:11:08;2.70;;;2.50;;
1378;SDS011;683;48.738;9.226;2022-12-26T06:13:37;4.03;;;2.70;;
1378;SDS011;683;48.738;9.226;2022-12-26T06:16:05;3.00;;;2.80;;
1378;SDS011;683;48.738;9.226;2022-12-26T06:18:33;3.00;;;2.70;;
1378;SDS011;683;48.738;9.226;2022-12-26T06:21:03;3.60;;;3.10;;
1378;SDS011;683;48.738;9.226;2022-12-26T06:23:32;2.80;;;2.60;;
1378;SDS011;683;48.738;9.226;2022-12-26T06:25:59;2.33;;;2.23;;
1378;SDS011;683;48.738;9.226;2022-12-26T06:28:27;2.70;;;2.50;;
1378;SDS011;683;48.738;9.226;2022-12-26T06:31:00;3.90;;;2.90;;
1378;SDS011;683;48.738;9.226;2022-12-26T06:33:28;2.83;;;2.60;;
1378;SDS011;683;48.738;9.226;2022-12-26T06:36:00;2.60;;;2.40;;
1378;SDS011;683;48.738;9.226;2022-12-26T06:38:30;2.93;;;2.50;;
1378;SDS011;683;48.738;9.226;2022-12-26T06:40:57;4.47;;;2.63;;
1378;SDS011;683;48.738;9.226;2022-12-26T06:43:25;3.93;;;3.30;;
1378;SDS011;683;48.738;9.226;2022-12-26T06:45:55;3.27;;;2.50;;
1378;SDS011;683;48.738;9.226;2022-12-26T06:48:23;3.57;;;3.23;;
1378;SDS011;683;48.738;9.226;2022-12-26T06:50:51;2.53;;;2.33;;
1378;SDS011;683;48.738;9.226;2022-12-26T06:53:19;2.50;;;2.30;;
1378;SDS011;683;48.738;9.226;2022-12-26T06:55:48;3.00;;;2.77;;
1378;SDS011;683;48.738;9.226;2022-12-26T06:58:16;3.10;;;2.80;;
1378;SDS011;683;48.738;9.226;2022-12-26T07:00:44;2.93;;;2.67;;
1378;SDS011;683;48.738;9.226;2022-12-26T07:03:11;3.93;;;2.73;;
1378;SDS011;683;48.738;9.226;2022-12-26T07:05:38;5.27;;;3.00;;
1378;SDS011;683;48.738;9.226;2022-12-26T07:08:05;3.40;;;2.63;;
1378;SDS011;683;48.738;9.226;2022-12-26T07:10:33;3.00;;;2.70;;
1378;SDS011;683;48.738;9.226;2022-12-26T07:13:03;3.10;;;2.63;;
1378;SDS011;683;48.738;9.226;2022-12-26T07:15:30;2.90;;;2.43;;
1378;SDS011;683;48.738;9.226;2022-12-26T07:17:57;3.50;;;2.90;;
1378;SDS011;683;48.738;9.226;2022-12-26T07:20:24;4.53;;;2.70;;
1378;SDS011;683;48.738;9.226;2022-12-26T07:22:52;3.50;;;2.67;;
1378;SDS011;683;48.738;9.226;2022-12-26T07:25:20;5.43;;;3.67;;
1378;SDS011;683;48.738;9.226;2022-12-26T07:27:51;4.37;;;3.90;;
1378;SDS011;683;48.738;9.226;2022-12-26T07:30:20;4.10;;;3.57;;
1378;SDS011;683;48.738;9.226;2022-12-26T07:32:48;8.33;;;4.37;;
1378;SDS011;683;48.738;9.226;2022-12-26T07:35:15;3.70;;;3.40;;
1378;SDS011;683;48.738;9.226;2022-12-26T07:37:42;4.40;;;3.60;;
1378;SDS011;683;48.738;9.226;2022-12-26T07:40:10;4.07;;;3.47;;
1378;SDS011;683;48.738;9.226;2022-12-26T07:42:38;3.70;;;3.40;;
1378;SDS011;683;48.738;9.226;2022-12-26T07:45:05;6.27;;;3.83;;
1378;SDS011;683;48.738;9.226;2022-12-26T07:47:35;6.50;;;3.67;;
1378;SDS011;683;48.738;9.226;2022-12-26T07:50:02;3.60;;;3.30;;
1378;SDS011;683;48.738;9.226;2022-12-26T07:52:30;3.70;;;3.40;;
1378;SDS011;683;48.738;9.226;2022-12-26T07:54:57;5.40;;;3.60;;
1378;SDS011;683;48.738;9.226;2022-12-26T07:57:25;3.30;;;3.00;;
1378;SDS011;683;48.738;9.226;2022-12-26T07:59:52;3.80;;;3.40;;
1378;SDS011;683;48.738;9.226;2022-12-26T08:02:20;3.37;;;3.07;;
1378;SDS011;683;48.738;9.226;2022-12-26T08:04:49;3.60;;;3.30;;
1378;SDS011;683;48.738;9.226;2022-12-26T08:07:16;5.17;;;3.80;;
1378;SDS011;683;48.738;9.226;2022-12-26T08:09:44;6.60;;;3.80;;
1378;SDS011;683;48.738;9.226;2022-12-26T08:12:11;4.23;;;3.80;;
1378;SDS011;683;48.738;9.226;2022-12-26T08:14:38;9.83;;;6.47;;
1378;SDS011;683;48.738;9.226;2022-12-26T08:17:06;4.13;;;3.80;;
1378;SDS011;683;48.738;9.226;2022-12-26T08:19:34;5.73;;;4.10;;
1378;SDS011;683;48.738;9.226;2022-12-26T08:22:02;5.47;;;4.50;;
1378;SDS011;683;48.738;9.226;2022-12-26T08:24:30;4.80;;;4.40;;
1378;SDS011;683;48.738;9.226;2022-12-26T08:26:57;4.83;;;4.13;;
1378;SDS011;683;48.738;9.226;2022-12-26T08:29:24;6.40;;;4.60;;
1378;SDS011;683;48.738;9.226;2022-12-26T08:31:52;7.80;;;4.67;;
1378;SDS011;683;48.738;9.226;2022-12-26T08:34:19;5.23;;;3.90;;
1378;SDS011;683;48.738;9.226;2022-12-26T08:36:48;5.57;;;4.20;;
1378;SDS011;683;48.738;9.226;2022-12-26T08:39:17;5.77;;;4.20;;
1378;SDS011;683;48.738;9.226;2022-12-26T08:41:44;4.63;;;3.97;;
1378;SDS011;683;48.738;9.226;2022-12-26T08:44:12;3.80;;;3.50;;
1378;SDS011;683;48.738;9.226;2022-12-26T08:46:42;4.17;;;3.87;;
1378;SDS011;683;48.738;9.226;2022-12-26T08:49:09;4.90;;;4.30;;
1378;SDS011;683;48.738;9.226;2022-12-26T08:51:36;6.30;;;4.50;;
1378;SDS011;683;48.738;9.226;2022-12-26T08:54:04;5.47;;;4.63;;
1378;SDS011;683;48.738;9.226;2022-12-26T08:56:33;4.70;;;4.00;;
1378;SDS011;683;48.738;9.226;2022-12-26T08:59:00;5.20;;;4.70;;
1378;SDS011;683;48.738;9.226;2022-12-26T09:01:28;4.97;;;4.57;;
1378;SDS011;683;48.738;9.226;2022-12-26T09:03:57;5.70;;;4.67;;
1378;SDS011;683;48.738;9.226;2022-12-26T09:06:27;5.47;;;4.03;;
1378;SDS011;683;48.738;9.226;2022-12-26T09:08:54;7.50;;;3.70;;
1378;SDS011;683;48.738;9.226;2022-12-26T09:11:24;6.07;;;4.73;;
1378;SDS011;683;48.738;9.226;2022-12-26T09:13:57;6.13;;;4.67;;
1378;SDS011;683;48.738;9.226;2022-12-26T09:16:26;5.40;;;4.87;;
1378;SDS011;683;48.738;9.226;2022-12-26T09:18:56;4.80;;;4.30;;
1378;SDS011;683;48.738;9.226;2022-12-26T09:21:24;5.07;;;4.47;;
1378;SDS011;683;48.738;9.226;2022-12-26T09:23:54;4.83;;;4.33;;
1378;SDS011;683;48.738;9.226;2022-12-26T09:26:22;5.07;;;4.57;;
1378;SDS011;683;48.738;9.226;2022-12-26T09:28:51;4.73;;;4.30;;
1378;SDS011;683;48.738;9.226;2022-12-26T09:31:21;5.43;;;4.93;;
1378;SDS011;683;48.738;9.226;2022-12-26T09:33:52;6.00;;;4.13;;
1378;SDS011;683;48.738;9.226;2022-12-26T09:36:20;5.63;;;4.27;;
1378;SDS011;683;48.738;9.226;2022-12-26T09:38:49;5.07;;;4.57;;
1378;SDS011;683;48.738;9.226;2022-12-26T09:41:21;5.40;;;4.63;;
1378;SDS011;683;48.738;9.226;2022-12-26T09:44:04;6.33;;;5.30;;
1378;SDS011;683;48.738;9.226;2022-12-26T09:46:35;6.30;;;5.17;;
1378;SDS011;683;48.738;9.226;2022-12-26T09:49:10;11.27;;;5.87;;
1378;SDS011;683;48.738;9.226;2022-12-26T09:51:43;7.90;;;5.03;;
1378;SDS011;683;48.738;9.226;2022-12-26T09:54:17;5.63;;;5.00;;
1378;SDS011;683;48.738;9.226;2022-12-26T09:56:50;6.13;;;5.53;;
1378;SDS011;683;48.738;9.226;2022-12-26T09:59:20;6.03;;;5.40;;
1378;SDS011;683;48.738;9.226;2022-12-26T10:01:51;6.73;;;5.73;;
1378;SDS011;683;48.738;9.226;2022-12-26T10:04:23;8.23;;;7.10;;
1378;SDS011;683;48.738;9.226;2022-12-26T10:06:56;8.43;;;6.37;;
1378;SDS011;683;48.738;9.226;2022-12-26T10:09:42;8.50;;;6.63;;
1378;SDS011;683;48.738;9.226;2022-12-26T10:12:20;8.60;;;6.10;;
1378;SDS011;683;48.738;9.226;2022-12-26T10:15:01;6.87;;;6.27;;
1378;SDS011;683;48.738;9.226;2022-12-26T10:17:39;6.50;;;5.60;;
1378;SDS011;683;48.738;9.226;2022-12-26T10:20:20;8.47;;;7.13;;
1378;SDS011;683;48.738;9.226;2022-12-26T10:23:05;23.23;;;17.47;;
1378;SDS011;683;48.738;9.226;2022-12-26T10:25:59;7.40;;;6.63;;
1378;SDS011;683;48.738;9.226;2022-12-26T10:28:34;8.60;;;7.07;;
1378;SDS011;683;48.738;9.226;2022-12-26T10:31:07;12.03;;;7.33;;
1378;SDS011;683;48.738;9.226;2022-12-26T10:33:44;10.77;;;7.23;;
1378;SDS011;683;48.738;9.226;2022-12-26T10:36:15;8.50;;;7.00;;
1378;SDS011;683;48.738;9.226;2022-12-26T10:38:49;7.17;;;6.03;;
1378;SDS011;683;48.738;9.226;2022-12-26T10:41:27;11.90;;;6.60;;
1378;SDS011;683;48.738;9.226;2022-12-26T10:44:00;9.80;;;7.63;;
1378;SDS011;683;48.738;9.226;2022-12-26T10:49:28;13.00;;;7.13;;
1378;SDS011;683;48.738;9.226;2022-12-26T10:51:56;14.30;;;9.17;;
1378;SDS011;683;48.738;9.226;2022-12-26T10:54:26;11.00;;;7.40;;
1378;SDS011;683;48.738;9.226;2022-12-26T10:56:55;7.53;;;6.60;;
1378;SDS011;683;48.738;9.226;2022-12-26T10:59:27;9.40;;;7.23;;
1378;SDS011;683;48.738;9.226;2022-12-26T11:02:10;8.43;;;7.67;;
1378;SDS011;683;48.738;9.226;2022-12-26T11:04:45;8.20;;;7.40;;
1378;SDS011;683;48.738;9.226;2022-12-26T11:07:28;15.60;;;10.57;;
1378;SDS011;683;48.738;9.226;2022-12-26T11:09:58;7.57;;;6.90;;
1378;SDS011;683;48.738;9.226;2022-12-26T11:12:26;6.73;;;6.10;;
1378;SDS011;683;48.738;9.226;2022-12-26T11:15:01;6.53;;;5.83;;
1378;SDS011;683;48.738;9.226;2022-12-26T11:17:32;6.50;;;5.37;;
1378;SDS011;683;48.738;9.226;2022-12-26T11:20:10;7.63;;;6.50;;
1378;SDS011;683;48.738;9.226;2022-12-26T11:22:48;7.90;;;6.50;;
1378;SDS011;683;48.738;9.226;2022-12-26T11:25:17;10.40;;;5.20;;
1378;SDS011;683;48.738;9.226;2022-12-26T11:27:47;9.37;;;4.17;;
1378;SDS011;683;48.738;9.226;2022-12-26T11:30:17;6.33;;;5.03;;
1378;SDS011;683;48.738;9.226;2022-12-26T11:33:03;7.10;;;4.00;;
1378;SDS011;683;48.738;9.226;2022-12-26T11:35:45;5.50;;;4.40;;
1378;SDS011;683;48.738;9.226;2022-12-26T11:38:16;3.57;;;3.27;;
1378;SDS011;683;48.738;9.226;2022-12-26T11:40:58;9.33;;;5.00;;
1378;SDS011;683;48.738;9.226;2022-12-26T11:43:44;5.17;;;4.67;;
1378;SDS011;683;48.738;9.226;2022-12-26T11:46:11;7.13;;;5.07;;
1378;SDS011;683;48.738;9.226;2022-12-26T11:48:39;9.63;;;4.30;;
1378;SDS011;683;48.738;9.226;2022-12-26T11:51:08;6.37;;;4.27;;
1378;SDS011;683;48.738;9.226;2022-12-26T11:53:36;6.97;;;4.83;;
1378;SDS011;683;48.738;9.226;2022-12-26T11:56:04;6.30;;;5.50;;
1378;SDS011;683;48.738;9.226;2022-12-26T11:58:33;5.30;;;4.53;;
1378;SDS011;683;48.738;9.226;2022-12-26T12:01:05;5.53;;;5.03;;
1378;SDS011;683;48.738;9.226;2022-12-26T12:03:38;4.73;;;4.20;;
1378;SDS011;683;48.738;9.226;2022-12-26T12:06:15;5.73;;;4.50;;
1378;SDS011;683;48.738;9.226;2022-12-26T12:09:05;3.63;;;3.07;;
1378;SDS011;683;48.738;9.226;2022-12-26T12:11:54;3.83;;;3.33;;
1378;SDS011;683;48.738;9.226;2022-12-26T12:14:29;3.23;;;2.93;;
1378;SDS011;683;48.738;9.226;2022-12-26T12:17:11;6.10;;;2.97;;
1378;SDS011;683;48.738;9.226;2022-12-26T12:19:47;3.57;;;2.47;;
1378;SDS011;683;48.738;9.226;2022-12-26T12:25:31;2.70;;;2.50;;
1378;SDS011;683;48.738;9.226;2022-12-26T12:28:10;2.80;;;2.37;;
1378;SDS011;683;48.738;9.226;2022-12-26T12:30:49;2.30;;;1.60;;
1378;SDS011;683;48.738;9.226;2022-12-26T12:33:27;3.00;;;2.60;;
1378;SDS011;683;48.738;9.226;2022-12-26T12:36:07;3.10;;;2.80;;
1378;SDS011;683;48.738;9.226;2022-12-26T12:38:40;2.63;;;2.43;;
1378;SDS011;683;48.738;9.226;2022-12-26T12:41:38;2.60;;;2.40;;
1378;SDS011;683;48.738;9.226;2022-12-26T12:44:25;3.00;;;2.70;;
1378;SDS011;683;48.738;9.226;2022-12-26T12:47:15;1.63;;;1.53;;
1378;SDS011;683;48.738;9.226;2022-12-26T12:49:56;3.40;;;1.80;;
1378;SDS011;683;48.738;9.226;2022-12-26T12:52:33;3.37;;;1.53;;
1378;SDS011;683;48.738;9.226;2022-12-26T12:55:23;1.60;;;1.30;;
1378;SDS011;683;48.738;9.226;2022-12-26T12:58:09;2.10;;;1.30;;
1378;SDS011;683;48.738;9.226;2022-12-26T13:00:44;3.03;;;1.03;;
1378;SDS011;683;48.738;9.226;2022-12-26T13:03:24;0.80;;;0.80;;
1378;SDS011;683;48.738;9.226;2022-12-26T13:06:00;2.57;;;0.87;;
1378;SDS011;683;48.738;9.226;2022-12-26T13:08:31;1.00;;;1.00;;
1378;SDS011;683;48.738;9.226;2022-12-26T13:11:05;2.10;;;0.80;;
1378;SDS011;683;48.738;9.226;2022-12-26T13:13:39;2.30;;;1.00;;
1378;SDS011;683;48.738;9.226;2022-12-26T13:16:13;1.67;;;1.00;;
1378;SDS011;683;48.738;9.226;2022-12-26T13:18:46;1.00;;;1.00;;
1378;SDS011;683;48.738;9.226;2022-12-26T13:21:21;1.30;;;0.83;;
1378;SDS011;683;48.738;9.226;2022-12-26T13:23:49;1.57;;;1.47;;
1378;SDS011;683;48.738;9.226;2022-12-26T13:26:38;0.90;;;0.80;;
1378;SDS011;683;48.738;9.226;2022-12-26T13:29:10;1.13;;;1.13;;
1378;SDS011;683;48.738;9.226;2022-12-26T13:31:44;0.67;;;0.67;;
1378;SDS011;683;48.738;9.226;2022-12-26T13:34:13;0.50;;;0.50;;
1378;SDS011;683;48.738;9.226;2022-12-26T13:36:43;2.20;;;1.60;;
1378;SDS011;683;48.738;9.226;2022-12-26T13:39:20;1.03;;;1.03;;
1378;SDS011;683;48.738;9.226;2022-12-26T13:41:59;1.67;;;1.30;;
1378;SDS011;683;48.738;9.226;2022-12-26T13:51:04;1.87;;;1.10;;
1378;SDS011;683;48.738;9.226;2022-12-26T13:53:55;1.47;;;1.37;;
1378;SDS011;683;48.738;9.226;2022-12-26T13:59:35;1.10;;;1.10;;
1378;SDS011;683;48.738;9.226;2022-12-26T14:02:12;2.00;;;1.40;;
1378;SDS011;683;48.738;9.226;2022-12-26T14:04:57;1.77;;;1.20;;
1378;SDS011;683;48.738;9.226;2022-12-26T14:07:36;1.80;;;1.40;;
1378;SDS011;683;48.738;9.226;2022-12-26T14:10:11;1.60;;;1.40;;
1378;SDS011;683;48.738;9.226;2022-12-26T14:12:49;1.47;;;1.37;;
1378;SDS011;683;48.738;9.226;2022-12-26T14:15:38;1.50;;;1.40;;
1378;SDS011;683;48.738;9.226;2022-12-26T14:18:22;1.33;;;1.23;;
1378;SDS011;683;48.738;9.226;2022-12-26T14:21:15;1.70;;;1.57;;
1378;SDS011;683;48.738;9.226;2022-12-26T14:24:30;1.47;;;1.27;;
1378;SDS011;683;48.738;9.226;2022-12-26T14:27:15;2.30;;;1.23;;
1378;SDS011;683;48.738;9.226;2022-12-26T14:30:04;0.97;;;0.93;;
1378;SDS011;683;48.738;9.226;2022-12-26T14:32:46;1.93;;;1.13;;
1378;SDS011;683;48.738;9.226;2022-12-26T14:35:30;1.23;;;1.20;;
1378;SDS011;683;48.738;9.226;2022-12-26T14:38:05;1.47;;;1.37;;
1378;SDS011;683;48.738;9.226;2022-12-26T14:40:58;1.43;;;0.73;;
1378;SDS011;683;48.738;9.226;2022-12-26T14:43:33;1.17;;;1.00;;
1378;SDS011;683;48.738;9.226;2022-12-26T14:46:02;1.43;;;1.33;;
1378;SDS011;683;48.738;9.226;2022-12-26T14:48:48;1.80;;;1.70;;
1378;SDS011;683;48.738;9.226;2022-12-26T14:51:31;1.40;;;1.30;;
1378;SDS011;683;48.738;9.226;2022-12-26T15:00:17;1.23;;;1.13;;
1378;SDS011;683;48.738;9.226;2022-12-26T15:15:36;1.10;;;1.10;;
1378;SDS011;683;48.738;9.226;2022-12-26T15:21:35;1.50;;;1.40;;
1378;SDS011;683;48.738;9.226;2022-12-26T15:24:23;1.90;;;1.03;;
1378;SDS011;683;48.738;9.226;2022-12-26T15:30:14;2.73;;;1.30;;
1378;SDS011;683;48.738;9.226;2022-12-26T15:32:47;1.30;;;1.03;;
1378;SDS011;683;48.738;9.226;2022-12-26T15:35:25;1.63;;;1.53;;
1378;SDS011;683;48.738;9.226;2022-12-26T15:38:16;1.50;;;1.40;;
1378;SDS011;683;48.738;9.226;2022-12-26T15:40:51;1.20;;;1.10;;
1378;SDS011;683;48.738;9.226;2022-12-26T15:43:27;2.93;;;1.17;;
1378;SDS011;683;48.738;9.226;2022-12-26T15:46:07;1.83;;;1.20;;
1378;SDS011;683;48.738;9.226;2022-12-26T15:48:48;1.07;;;0.83;;
1378;SDS011;683;48.738;9.226;2022-12-26T15:51:24;1.23;;;1.13;;
1378;SDS011;683;48.738;9.226;2022-12-26T15:54:01;1.50;;;1.20;;
1378;SDS011;683;48.738;9.226;2022-12-26T15:56:49;1.10;;;0.87;;
1378;SDS011;683;48.738;9.226;2022-12-26T15:59:30;8.00;;;2.03;;
1378;SDS011;683;48.738;9.226;2022-12-26T16:02:12;1.37;;;1.27;;
1378;SDS011;683;48.738;9.226;2022-12-26T16:04:56;1.30;;;1.20;;
1378;SDS011;683;48.738;9.226;2022-12-26T16:07:31;0.80;;;0.80;;
1378;SDS011;683;48.738;9.226;2022-12-26T16:10:13;1.00;;;0.90;;
1378;SDS011;683;48.738;9.226;2022-12-26T16:12:56;1.10;;;1.10;;
1378;SDS011;683;48.738;9.226;2022-12-26T16:15:26;1.37;;;1.27;;
1378;SDS011;683;48.738;9.226;2022-12-26T16:18:07;1.23;;;0.97;;
1378;SDS011;683;48.738;9.226;2022-12-26T16:20:38;1.53;;;1.43;;
1378;SDS011;683;48.738;9.226;2022-12-26T16:23:23;0.90;;;0.90;;
1378;SDS011;683;48.738;9.226;2022-12-26T16:25:54;1.20;;;1.10;;
1378;SDS011;683;48.738;9.226;2022-12-26T16:28:25;1.17;;;1.10;;
1378;SDS011;683;48.738;9.226;2022-12-26T16:30:56;1.53;;;1.10;;
1378;SDS011;683;48.738;9.226;2022-12-26T16:33:28;1.27;;;1.17;;
1378;SDS011;683;48.738;9.226;2022-12-26T16:35:58;1.20;;;1.10;;
1378;SDS011;683;48.738;9.226;2022-12-26T16:38:26;1.30;;;1.17;;
1378;SDS011;683;48.738;9.226;2022-12-26T16:40:55;2.70;;;1.30;;
1378;SDS011;683;48.738;9.226;2022-12-26T16:43:26;0.90;;;0.90;;
1378;SDS011;683;48.738;9.226;2022-12-26T16:45:55;1.20;;;1.20;;
1378;SDS011;683;48.738;9.226;2022-12-26T16:48:27;0.93;;;0.90;;
1378;SDS011;683;48.738;9.226;2022-12-26T16:50:58;1.37;;;1.27;;
1378;SDS011;683;48.738;9.226;2022-12-26T16:53:40;3.10;;;1.90;;
1378;SDS011;683;48.738;9.226;2022-12-26T16:58:57;3.17;;;2.17;;
1378;SDS011;683;48.738;9.226;2022-12-26T17:01:30;1.50;;;1.40;;